sensor_id;sensor_type;location;lat;lon;timestamp;pressure;altitude;pressure_sealevel;temperature;humidity
41686;BME280;27370;42.764;23.432;2023-07-31T00:01:20;95219.19;;;20.48;100.00
41686;BME280;27370;42.764;23.432;2023-07-31T00:03:46;95213.22;;;20.35;100.00
41686;BME280;27370;42.764;23.432;2023-07-31T00:06:12;95220.66;;;20.44;100.00
41686;BME280;27370;42.764;23.432;2023-07-31T00:08:37;95228.69;;;20.33;100.00
41686;BME280;27370;42.764;23.432;2023-07-31T00:11:03;95226.91;;;20.30;100.00
41686;BME280;27370;42.764;23.432;2023-07-31T00:13:28;95231.19;;;20.31;100.00
41686;BME280;27370;42.764;23.432;2023-07-31T00:15:54;95222.25;;;20.36;100.00
41686;BME280;27370;42.764;23.432;2023-07-31T00:18:19;95235.63;;;20.43;100.00
41686;BME280;27370;42.764;23.432;2023-07-31T00:20:45;95235.72;;;20.34;100.00
41686;BME280;27370;42.764;23.432;2023-07-31T00:23:10;95211.09;;;20.25;100.00
41686;BME280;27370;42.764;23.432;2023-07-31T00:25:36;95216.59;;;20.25;100.00
41686;BME280;27370;42.764;23.432;2023-07-31T00:28:01;95213.66;;;20.28;100.00
41686;BME280;27370;42.764;23.432;2023-07-31T00:30:27;95201.16;;;20.12;100.00
41686;BME280;27370;42.764;23.432;2023-07-31T01:46:33;95177.56;;;18.82;100.00
41686;BME280;27370;42.764;23.432;2023-07-31T01:48:58;95186.00;;;18.93;100.00
41686;BME280;27370;42.764;23.432;2023-07-31T01:51:24;95186.00;;;18.93;100.00
41686;BME280;27370;42.764;23.432;2023-07-31T01:53:50;95188.72;;;18.79;100.00
41686;BME280;27370;42.764;23.432;2023-07-31T01:56:15;95191.09;;;18.86;100.00
41686;BME280;27370;42.764;23.432;2023-07-31T01:58:40;95182.13;;;18.61;100.00
41686;BME280;27370;42.764;23.432;2023-07-31T02:01:06;95192.31;;;18.61;100.00
41686;BME280;27370;42.764;23.432;2023-07-31T02:03:33;95200.03;;;18.48;100.00
41686;BME280;27370;42.764;23.432;2023-07-31T02:05:59;95206.44;;;18.45;100.00
41686;BME280;27370;42.764;23.432;2023-07-31T02:08:24;95201.53;;;18.49;100.00
41686;BME280;27370;42.764;23.432;2023-07-31T02:10:51;95199.16;;;18.42;100.00
41686;BME280;27370;42.764;23.432;2023-07-31T02:13:17;95206.25;;;18.00;100.00
41686;BME280;27370;42.764;23.432;2023-07-31T02:15:42;95197.03;;;17.89;100.00
41686;BME280;27370;42.764;23.432;2023-07-31T02:18:08;95209.53;;;17.81;100.00
41686;BME280;27370;42.764;23.432;2023-07-31T02:20:34;95215.31;;;17.83;100.00
41686;BME280;27370;42.764;23.432;2023-07-31T02:23:01;95204.31;;;17.92;100.00
41686;BME280;27370;42.764;23.432;2023-07-31T02:25:26;95213.72;;;18.00;100.00
41686;BME280;27370;42.764;23.432;2023-07-31T02:27:52;95217.66;;;17.99;100.00
41686;BME280;27370;42.764;23.432;2023-07-31T02:30:17;95204.16;;;17.95;100.00
41686;BME280;27370;42.764;23.432;2023-07-31T02:32:43;95211.72;;;18.00;100.00
41686;BME280;27370;42.764;23.432;2023-07-31T02:35:09;95216.72;;;18.11;100.00
41686;BME280;27370;42.764;23.432;2023-07-31T02:37:35;95206.50;;;18.12;100.00
41686;BME280;27370;42.764;23.432;2023-07-31T02:40:01;95202.25;;;18.11;100.00
41686;BME280;27370;42.764;23.432;2023-07-31T02:42:28;95215.50;;;18.12;100.00
41686;BME280;27370;42.764;23.432;2023-07-31T02:44:53;95211.25;;;18.02;100.00
41686;BME280;27370;42.764;23.432;2023-07-31T02:47:21;95207.25;;;18.12;100.00
41686;BME280;27370;42.764;23.432;2023-07-31T02:49:47;95221.84;;;18.18;100.00
41686;BME280;27370;42.764;23.432;2023-07-31T02:52:13;95226.78;;;18.29;100.00
41686;BME280;27370;42.764;23.432;2023-07-31T02:54:38;95221.44;;;18.34;100.00
41686;BME280;27370;42.764;23.432;2023-07-31T02:57:04;95221.44;;;18.34;100.00
41686;BME280;27370;42.764;23.432;2023-07-31T02:59:30;95223.25;;;18.38;100.00
41686;BME280;27370;42.764;23.432;2023-07-31T03:01:55;95239.56;;;18.32;100.00
41686;BME280;27370;42.764;23.432;2023-07-31T03:04:21;95245.19;;;18.38;100.00
41686;BME280;27370;42.764;23.432;2023-07-31T03:06:48;95229.16;;;18.45;100.00
41686;BME280;27370;42.764;23.432;2023-07-31T03:09:14;95233.97;;;18.50;100.00
41686;BME280;27370;42.764;23.432;2023-07-31T03:11:39;95241.97;;;18.39;100.00
41686;BME280;27370;42.764;23.432;2023-07-31T03:14:05;95240.50;;;18.53;100.00
41686;BME280;27370;42.764;23.432;2023-07-31T03:16:30;95233.69;;;18.48;100.00
41686;BME280;27370;42.764;23.432;2023-07-31T03:18:56;95223.78;;;18.51;100.00
41686;BME280;27370;42.764;23.432;2023-07-31T03:21:21;95225.09;;;18.55;100.00
41686;BME280;27370;42.764;23.432;2023-07-31T03:23:47;95237.72;;;18.62;100.00
41686;BME280;27370;42.764;23.432;2023-07-31T03:26:12;95238.16;;;18.70;100.00
41686;BME280;27370;42.764;23.432;2023-07-31T03:28:38;95238.94;;;18.61;100.00
41686;BME280;27370;42.764;23.432;2023-07-31T03:31:04;95248.25;;;18.30;100.00
41686;BME280;27370;42.764;23.432;2023-07-31T03:33:29;95245.50;;;18.30;100.00
41686;BME280;27370;42.764;23.432;2023-07-31T03:35:55;95251.91;;;18.03;100.00
41686;BME280;27370;42.764;23.432;2023-07-31T03:38:21;95262.38;;;18.14;100.00
41686;BME280;27370;42.764;23.432;2023-07-31T03:40:46;95257.81;;;18.11;100.00
41686;BME280;27370;42.764;23.432;2023-07-31T03:43:12;95256.50;;;17.97;100.00
41686;BME280;27370;42.764;23.432;2023-07-31T03:45:38;95266.72;;;17.88;100.00
41686;BME280;27370;42.764;23.432;2023-07-31T03:48:04;95266.28;;;17.89;100.00
41686;BME280;27370;42.764;23.432;2023-07-31T03:50:30;95261.69;;;17.86;100.00
41686;BME280;27370;42.764;23.432;2023-07-31T03:52:56;95270.47;;;17.99;100.00
41686;BME280;27370;42.764;23.432;2023-07-31T03:55:21;95267.44;;;17.97;100.00
41686;BME280;27370;42.764;23.432;2023-07-31T03:57:47;95274.97;;;18.21;100.00
41686;BME280;27370;42.764;23.432;2023-07-31T04:00:13;95274.44;;;18.31;100.00
41686;BME280;27370;42.764;23.432;2023-07-31T04:02:40;95271.84;;;18.37;100.00
41686;BME280;27370;42.764;23.432;2023-07-31T04:05:06;95279.81;;;18.50;100.00
41686;BME280;27370;42.764;23.432;2023-07-31T04:07:32;95277.66;;;18.63;100.00
41686;BME280;27370;42.764;23.432;2023-07-31T04:09:57;95280.84;;;18.61;100.00
41686;BME280;27370;42.764;23.432;2023-07-31T04:12:23;95279.50;;;18.57;100.00
41686;BME280;27370;42.764;23.432;2023-07-31T04:14:48;95275.31;;;18.71;100.00
41686;BME280;27370;42.764;23.432;2023-07-31T04:17:14;95278.44;;;18.78;100.00
41686;BME280;27370;42.764;23.432;2023-07-31T04:19:39;95278.31;;;18.82;100.00
41686;BME280;27370;42.764;23.432;2023-07-31T04:22:05;95280.22;;;18.90;100.00
41686;BME280;27370;42.764;23.432;2023-07-31T04:24:30;95275.81;;;19.08;100.00
41686;BME280;27370;42.764;23.432;2023-07-31T04:26:56;95265.03;;;19.19;100.00
41686;BME280;27370;42.764;23.432;2023-07-31T04:29:21;95264.69;;;19.26;100.00
41686;BME280;27370;42.764;23.432;2023-07-31T04:31:48;95270.09;;;19.35;100.00
41686;BME280;27370;42.764;23.432;2023-07-31T04:34:13;95268.72;;;19.54;100.00
41686;BME280;27370;42.764;23.432;2023-07-31T04:36:39;95270.03;;;19.74;100.00
41686;BME280;27370;42.764;23.432;2023-07-31T04:39:04;95270.31;;;19.91;100.00
41686;BME280;27370;42.764;23.432;2023-07-31T04:41:29;95268.22;;;20.15;100.00
41686;BME280;27370;42.764;23.432;2023-07-31T04:43:55;95257.97;;;20.36;100.00
41686;BME280;27370;42.764;23.432;2023-07-31T04:46:20;95254.47;;;20.50;100.00
41686;BME280;27370;42.764;23.432;2023-07-31T04:48:46;95254.22;;;20.68;100.00
41686;BME280;27370;42.764;23.432;2023-07-31T04:51:11;95256.75;;;20.92;100.00
41686;BME280;27370;42.764;23.432;2023-07-31T04:53:37;95251.25;;;21.13;100.00
41686;BME280;27370;42.764;23.432;2023-07-31T04:56:03;95251.66;;;21.26;100.00
41686;BME280;27370;42.764;23.432;2023-07-31T04:58:28;95241.38;;;21.26;100.00
41686;BME280;27370;42.764;23.432;2023-07-31T05:00:54;95240.13;;;21.27;100.00
41686;BME280;27370;42.764;23.432;2023-07-31T05:03:19;95243.13;;;21.24;100.00
41686;BME280;27370;42.764;23.432;2023-07-31T05:05:45;95235.00;;;21.15;100.00
41686;BME280;27370;42.764;23.432;2023-07-31T05:08:10;95245.72;;;21.13;100.00
41686;BME280;27370;42.764;23.432;2023-07-31T05:10:36;95237.91;;;21.05;100.00
41686;BME280;27370;42.764;23.432;2023-07-31T05:13:01;95241.25;;;21.15;100.00
41686;BME280;27370;42.764;23.432;2023-07-31T05:15:27;95238.63;;;21.26;100.00
41686;BME280;27370;42.764;23.432;2023-07-31T05:17:52;95243.56;;;21.43;100.00
41686;BME280;27370;42.764;23.432;2023-07-31T05:20:18;95229.91;;;21.54;100.00
41686;BME280;27370;42.764;23.432;2023-07-31T05:22:43;95228.84;;;21.77;100.00
41686;BME280;27370;42.764;23.432;2023-07-31T05:25:08;95224.59;;;22.08;100.00
41686;BME280;27370;42.764;23.432;2023-07-31T05:27:34;95224.13;;;22.57;100.00
41686;BME280;27370;42.764;23.432;2023-07-31T05:29:59;95217.41;;;22.64;100.00
41686;BME280;27370;42.764;23.432;2023-07-31T05:32:25;95226.09;;;22.46;100.00
41686;BME280;27370;42.764;23.432;2023-07-31T05:34:51;95223.25;;;22.35;100.00
41686;BME280;27370;42.764;23.432;2023-07-31T05:37:17;95220.13;;;22.58;100.00
41686;BME280;27370;42.764;23.432;2023-07-31T05:39:43;95222.56;;;22.94;100.00
41686;BME280;27370;42.764;23.432;2023-07-31T05:42:08;95213.09;;;23.22;100.00
41686;BME280;27370;42.764;23.432;2023-07-31T05:44:34;95212.94;;;23.60;100.00
41686;BME280;27370;42.764;23.432;2023-07-31T05:47:00;95209.16;;;23.91;100.00
41686;BME280;27370;42.764;23.432;2023-07-31T05:49:25;95215.69;;;23.99;100.00
41686;BME280;27370;42.764;23.432;2023-07-31T05:51:51;95217.97;;;23.78;100.00
41686;BME280;27370;42.764;23.432;2023-07-31T05:54:16;95211.44;;;23.59;100.00
41686;BME280;27370;42.764;23.432;2023-07-31T05:56:42;95211.19;;;23.62;100.00
41686;BME280;27370;42.764;23.432;2023-07-31T05:59:09;95210.66;;;23.92;100.00
41686;BME280;27370;42.764;23.432;2023-07-31T06:01:35;95208.41;;;23.85;100.00
41686;BME280;27370;42.764;23.432;2023-07-31T06:04:00;95212.94;;;23.71;100.00
41686;BME280;27370;42.764;23.432;2023-07-31T06:06:27;95209.91;;;23.74;100.00
41686;BME280;27370;42.764;23.432;2023-07-31T06:08:53;95218.19;;;24.08;100.00
41686;BME280;27370;42.764;23.432;2023-07-31T06:11:20;95218.94;;;24.25;100.00
41686;BME280;27370;42.764;23.432;2023-07-31T06:13:45;95210.88;;;24.50;100.00
41686;BME280;27370;42.764;23.432;2023-07-31T06:16:13;95217.00;;;24.89;100.00
41686;BME280;27370;42.764;23.432;2023-07-31T06:18:39;95217.59;;;24.65;100.00
41686;BME280;27370;42.764;23.432;2023-07-31T06:21:05;95211.16;;;24.24;100.00
41686;BME280;27370;42.764;23.432;2023-07-31T06:23:31;95217.72;;;23.87;100.00
41686;BME280;27370;42.764;23.432;2023-07-31T06:25:57;95218.22;;;23.91;100.00
41686;BME280;27370;42.764;23.432;2023-07-31T06:28:30;95222.97;;;23.74;100.00
41686;BME280;27370;42.764;23.432;2023-07-31T06:30:56;95220.22;;;23.57;100.00
41686;BME280;27370;42.764;23.432;2023-07-31T06:33:21;95221.72;;;23.58;100.00
41686;BME280;27370;42.764;23.432;2023-07-31T06:35:47;95216.66;;;23.34;100.00
41686;BME280;27370;42.764;23.432;2023-07-31T06:38:12;95221.41;;;23.50;100.00
41686;BME280;27370;42.764;23.432;2023-07-31T06:40:38;95218.66;;;23.45;100.00
41686;BME280;27370;42.764;23.432;2023-07-31T06:43:03;95216.47;;;23.99;100.00
41686;BME280;27370;42.764;23.432;2023-07-31T06:45:36;95219.78;;;24.84;100.00
41686;BME280;27370;42.764;23.432;2023-07-31T06:48:03;95223.75;;;25.05;100.00
41686;BME280;27370;42.764;23.432;2023-07-31T06:50:29;95222.06;;;24.91;100.00
41686;BME280;27370;42.764;23.432;2023-07-31T06:52:55;95212.72;;;24.94;100.00
41686;BME280;27370;42.764;23.432;2023-07-31T06:55:21;95200.81;;;24.35;100.00
41686;BME280;27370;42.764;23.432;2023-07-31T06:57:48;95215.38;;;24.53;100.00
41686;BME280;27370;42.764;23.432;2023-07-31T07:00:15;95218.84;;;25.28;100.00
41686;BME280;27370;42.764;23.432;2023-07-31T07:02:41;95206.69;;;25.42;100.00
41686;BME280;27370;42.764;23.432;2023-07-31T07:05:07;95212.66;;;25.52;100.00
41686;BME280;27370;42.764;23.432;2023-07-31T07:07:32;95208.91;;;25.49;100.00
41686;BME280;27370;42.764;23.432;2023-07-31T07:09:58;95214.19;;;25.47;100.00
41686;BME280;27370;42.764;23.432;2023-07-31T07:12:25;95211.00;;;25.38;100.00
41686;BME280;27370;42.764;23.432;2023-07-31T07:14:51;95211.59;;;25.60;100.00
41686;BME280;27370;42.764;23.432;2023-07-31T07:17:18;95214.94;;;25.89;100.00
41686;BME280;27370;42.764;23.432;2023-07-31T07:19:44;95211.22;;;25.81;100.00
41686;BME280;27370;42.764;23.432;2023-07-31T07:22:11;95212.13;;;25.53;100.00
41686;BME280;27370;42.764;23.432;2023-07-31T07:24:37;95210.81;;;25.65;100.00
41686;BME280;27370;42.764;23.432;2023-07-31T07:27:03;95216.34;;;25.24;100.00
41686;BME280;27370;42.764;23.432;2023-07-31T07:29:28;95203.34;;;25.08;100.00
41686;BME280;27370;42.764;23.432;2023-07-31T07:31:54;95199.88;;;25.43;100.00
41686;BME280;27370;42.764;23.432;2023-07-31T07:34:19;95204.47;;;25.35;100.00
41686;BME280;27370;42.764;23.432;2023-07-31T07:36:45;95200.25;;;25.23;100.00
41686;BME280;27370;42.764;23.432;2023-07-31T07:39:10;95214.44;;;25.49;100.00
41686;BME280;27370;42.764;23.432;2023-07-31T07:41:36;95206.28;;;25.62;100.00
41686;BME280;27370;42.764;23.432;2023-07-31T07:44:02;95208.31;;;25.62;100.00
41686;BME280;27370;42.764;23.432;2023-07-31T07:46:27;95214.91;;;25.53;100.00
41686;BME280;27370;42.764;23.432;2023-07-31T07:48:53;95218.47;;;25.48;100.00
41686;BME280;27370;42.764;23.432;2023-07-31T07:51:18;95209.34;;;25.59;100.00
41686;BME280;27370;42.764;23.432;2023-07-31T07:53:44;95213.50;;;25.82;100.00
41686;BME280;27370;42.764;23.432;2023-07-31T07:56:09;95215.13;;;25.97;100.00
41686;BME280;27370;42.764;23.432;2023-07-31T07:58:35;95213.72;;;25.84;100.00
41686;BME280;27370;42.764;23.432;2023-07-31T08:01:00;95216.72;;;26.16;100.00
41686;BME280;27370;42.764;23.432;2023-07-31T08:03:26;95215.47;;;25.87;100.00
41686;BME280;27370;42.764;23.432;2023-07-31T08:05:51;95219.16;;;25.95;100.00
41686;BME280;27370;42.764;23.432;2023-07-31T08:08:16;95220.38;;;26.00;100.00
41686;BME280;27370;42.764;23.432;2023-07-31T08:10:42;95216.31;;;26.31;100.00
41686;BME280;27370;42.764;23.432;2023-07-31T08:13:10;95209.75;;;26.34;100.00
41686;BME280;27370;42.764;23.432;2023-07-31T08:15:36;95221.03;;;26.42;100.00
41686;BME280;27370;42.764;23.432;2023-07-31T08:18:02;95222.38;;;26.60;100.00
41686;BME280;27370;42.764;23.432;2023-07-31T08:20:27;95210.53;;;26.78;100.00
41686;BME280;27370;42.764;23.432;2023-07-31T08:22:53;95221.97;;;26.74;100.00
41686;BME280;27370;42.764;23.432;2023-07-31T08:25:20;95218.13;;;25.99;100.00
41686;BME280;27370;42.764;23.432;2023-07-31T08:27:45;95224.06;;;25.43;100.00
41686;BME280;27370;42.764;23.432;2023-07-31T08:30:12;95213.06;;;25.26;100.00
41686;BME280;27370;42.764;23.432;2023-07-31T08:32:37;95218.06;;;25.39;100.00
41686;BME280;27370;42.764;23.432;2023-07-31T08:35:03;95220.09;;;25.74;100.00
41686;BME280;27370;42.764;23.432;2023-07-31T08:37:28;95212.59;;;26.23;100.00
41686;BME280;27370;42.764;23.432;2023-07-31T08:39:54;95216.69;;;26.71;100.00
41686;BME280;27370;42.764;23.432;2023-07-31T08:42:20;95203.00;;;26.97;100.00
41686;BME280;27370;42.764;23.432;2023-07-31T08:44:46;95209.28;;;26.98;100.00
41686;BME280;27370;42.764;23.432;2023-07-31T08:47:12;95209.41;;;26.86;100.00
41686;BME280;27370;42.764;23.432;2023-07-31T08:49:38;95215.78;;;27.06;100.00
41686;BME280;27370;42.764;23.432;2023-07-31T08:52:06;95209.91;;;26.66;100.00
41686;BME280;27370;42.764;23.432;2023-07-31T08:54:31;95220.47;;;26.49;100.00
41686;BME280;27370;42.764;23.432;2023-07-31T08:56:58;95218.31;;;26.61;100.00
41686;BME280;27370;42.764;23.432;2023-07-31T08:59:30;95211.06;;;26.28;100.00
41686;BME280;27370;42.764;23.432;2023-07-31T09:01:57;95210.69;;;26.12;100.00
41686;BME280;27370;42.764;23.432;2023-07-31T09:04:26;95216.66;;;25.92;100.00
41686;BME280;27370;42.764;23.432;2023-07-31T09:06:57;95216.63;;;25.68;100.00
41686;BME280;27370;42.764;23.432;2023-07-31T09:09:25;95221.72;;;25.52;100.00
41686;BME280;27370;42.764;23.432;2023-07-31T09:11:51;95223.88;;;25.35;100.00
41686;BME280;27370;42.764;23.432;2023-07-31T09:14:17;95216.31;;;25.30;100.00
41686;BME280;27370;42.764;23.432;2023-07-31T09:16:54;95222.72;;;25.55;100.00
41686;BME280;27370;42.764;23.432;2023-07-31T09:19:31;95217.16;;;25.55;100.00
41686;BME280;27370;42.764;23.432;2023-07-31T09:21:58;95207.56;;;25.61;100.00
41686;BME280;27370;42.764;23.432;2023-07-31T09:24:30;95210.25;;;25.73;100.00
41686;BME280;27370;42.764;23.432;2023-07-31T09:26:58;95201.56;;;26.17;100.00
41686;BME280;27370;42.764;23.432;2023-07-31T09:29:25;95193.00;;;26.15;100.00
41686;BME280;27370;42.764;23.432;2023-07-31T09:31:52;95199.22;;;26.27;100.00
41686;BME280;27370;42.764;23.432;2023-07-31T09:34:18;95199.63;;;25.82;100.00
41686;BME280;27370;42.764;23.432;2023-07-31T09:36:47;95198.06;;;25.87;100.00
41686;BME280;27370;42.764;23.432;2023-07-31T09:39:14;95201.06;;;25.89;100.00
41686;BME280;27370;42.764;23.432;2023-07-31T09:41:47;95196.19;;;26.25;100.00
41686;BME280;27370;42.764;23.432;2023-07-31T09:44:18;95207.59;;;26.70;100.00
41686;BME280;27370;42.764;23.432;2023-07-31T09:46:43;95200.03;;;26.90;100.00
41686;BME280;27370;42.764;23.432;2023-07-31T09:49:11;95181.00;;;27.18;100.00
41686;BME280;27370;42.764;23.432;2023-07-31T09:51:38;95184.72;;;27.58;100.00
41686;BME280;27370;42.764;23.432;2023-07-31T09:54:10;95192.13;;;26.99;100.00
41686;BME280;27370;42.764;23.432;2023-07-31T09:56:41;95186.09;;;26.28;100.00
41686;BME280;27370;42.764;23.432;2023-07-31T09:59:11;95184.25;;;26.36;100.00
41686;BME280;27370;42.764;23.432;2023-07-31T10:01:37;95183.09;;;26.25;100.00
41686;BME280;27370;42.764;23.432;2023-07-31T10:04:04;95191.88;;;26.00;100.00
41686;BME280;27370;42.764;23.432;2023-07-31T10:06:31;95191.66;;;25.98;100.00
41686;BME280;27370;42.764;23.432;2023-07-31T10:08:58;95189.84;;;26.30;100.00
41686;BME280;27370;42.764;23.432;2023-07-31T10:11:25;95176.38;;;26.83;100.00
41686;BME280;27370;42.764;23.432;2023-07-31T10:13:53;95168.94;;;27.48;100.00
41686;BME280;27370;42.764;23.432;2023-07-31T10:16:19;95178.00;;;27.99;100.00
41686;BME280;27370;42.764;23.432;2023-07-31T10:18:46;95173.84;;;28.05;100.00
41686;BME280;27370;42.764;23.432;2023-07-31T10:21:11;95183.69;;;27.93;100.00
41686;BME280;27370;42.764;23.432;2023-07-31T10:23:38;95182.28;;;27.17;100.00
41686;BME280;27370;42.764;23.432;2023-07-31T10:26:07;95188.22;;;27.08;100.00
41686;BME280;27370;42.764;23.432;2023-07-31T10:28:34;95180.78;;;26.54;100.00
41686;BME280;27370;42.764;23.432;2023-07-31T10:31:01;95181.50;;;26.30;100.00
41686;BME280;27370;42.764;23.432;2023-07-31T10:33:27;95179.53;;;26.93;100.00
41686;BME280;27370;42.764;23.432;2023-07-31T10:36:12;95163.00;;;27.38;100.00
41686;BME280;27370;42.764;23.432;2023-07-31T10:38:38;95161.53;;;28.01;100.00
41686;BME280;27370;42.764;23.432;2023-07-31T10:41:10;95158.88;;;28.22;100.00
41686;BME280;27370;42.764;23.432;2023-07-31T10:43:36;95158.44;;;28.18;100.00
41686;BME280;27370;42.764;23.432;2023-07-31T10:46:07;95160.75;;;27.36;100.00
41686;BME280;27370;42.764;23.432;2023-07-31T10:48:34;95170.94;;;27.15;100.00
41686;BME280;27370;42.764;23.432;2023-07-31T10:51:00;95168.94;;;26.91;100.00
41686;BME280;27370;42.764;23.432;2023-07-31T10:53:32;95168.84;;;26.59;100.00
41686;BME280;27370;42.764;23.432;2023-07-31T10:56:02;95161.91;;;26.71;100.00
41686;BME280;27370;42.764;23.432;2023-07-31T10:58:28;95149.50;;;26.72;100.00
41686;BME280;27370;42.764;23.432;2023-07-31T11:00:59;95151.06;;;27.43;100.00
41686;BME280;27370;42.764;23.432;2023-07-31T11:03:27;95149.53;;;28.06;100.00
41686;BME280;27370;42.764;23.432;2023-07-31T11:06:05;95145.53;;;27.75;100.00
41686;BME280;27370;42.764;23.432;2023-07-31T11:08:33;95147.56;;;27.42;100.00
41686;BME280;27370;42.764;23.432;2023-07-31T11:13:31;95148.38;;;27.37;100.00
41686;BME280;27370;42.764;23.432;2023-07-31T11:15:57;95149.16;;;27.70;100.00
41686;BME280;27370;42.764;23.432;2023-07-31T11:18:23;95145.72;;;28.22;100.00
41686;BME280;27370;42.764;23.432;2023-07-31T11:20:49;95136.84;;;28.77;100.00
41686;BME280;27370;42.764;23.432;2023-07-31T11:23:16;95144.75;;;29.33;100.00
41686;BME280;27370;42.764;23.432;2023-07-31T11:25:42;95134.31;;;29.47;100.00
41686;BME280;27370;42.764;23.432;2023-07-31T11:28:12;95142.66;;;29.13;100.00
41686;BME280;27370;42.764;23.432;2023-07-31T11:30:38;95146.59;;;28.57;100.00
41686;BME280;27370;42.764;23.432;2023-07-31T11:33:06;95137.06;;;28.26;100.00
41686;BME280;27370;42.764;23.432;2023-07-31T11:35:33;95139.00;;;28.44;100.00
41686;BME280;27370;42.764;23.432;2023-07-31T11:38:00;95135.56;;;28.51;100.00
41686;BME280;27370;42.764;23.432;2023-07-31T11:40:26;95135.00;;;28.92;100.00
41686;BME280;27370;42.764;23.432;2023-07-31T11:42:58;95134.66;;;28.83;100.00
41686;BME280;27370;42.764;23.432;2023-07-31T11:45:25;95137.50;;;28.43;100.00
41686;BME280;27370;42.764;23.432;2023-07-31T11:47:52;95129.97;;;28.12;100.00
41686;BME280;27370;42.764;23.432;2023-07-31T11:50:18;95135.00;;;28.13;100.00
41686;BME280;27370;42.764;23.432;2023-07-31T11:52:46;95136.31;;;27.67;100.00
41686;BME280;27370;42.764;23.432;2023-07-31T11:55:13;95131.31;;;27.60;100.00
41686;BME280;27370;42.764;23.432;2023-07-31T11:57:42;95127.53;;;27.63;100.00
41686;BME280;27370;42.764;23.432;2023-07-31T12:00:09;95124.06;;;27.25;100.00
41686;BME280;27370;42.764;23.432;2023-07-31T12:02:37;95129.09;;;27.26;100.00
41686;BME280;27370;42.764;23.432;2023-07-31T12:05:05;95125.13;;;27.03;100.00
41686;BME280;27370;42.764;23.432;2023-07-31T12:07:49;95126.06;;;26.86;100.00
41686;BME280;27370;42.764;23.432;2023-07-31T12:10:31;95121.97;;;26.74;100.00
41686;BME280;27370;42.764;23.432;2023-07-31T12:13:01;95114.81;;;26.60;100.00
41686;BME280;27370;42.764;23.432;2023-07-31T12:15:38;95123.50;;;26.70;100.00
41686;BME280;27370;42.764;23.432;2023-07-31T12:18:15;95113.75;;;26.63;100.00
41686;BME280;27370;42.764;23.432;2023-07-31T12:25:40;95104.81;;;26.89;100.00
41686;BME280;27370;42.764;23.432;2023-07-31T12:28:07;95103.41;;;27.20;100.00
41686;BME280;27370;42.764;23.432;2023-07-31T12:30:37;95106.72;;;27.19;100.00
41686;BME280;27370;42.764;23.432;2023-07-31T12:33:05;95098.00;;;27.09;100.00
41686;BME280;27370;42.764;23.432;2023-07-31T12:35:39;95100.91;;;26.98;100.00
41686;BME280;27370;42.764;23.432;2023-07-31T12:38:05;95104.00;;;26.94;100.00
41686;BME280;27370;42.764;23.432;2023-07-31T12:40:32;95106.84;;;26.51;100.00
41686;BME280;27370;42.764;23.432;2023-07-31T12:42:58;95105.34;;;26.50;100.00
41686;BME280;27370;42.764;23.432;2023-07-31T12:45:23;95091.13;;;26.10;100.00
41686;BME280;27370;42.764;23.432;2023-07-31T12:47:49;95099.38;;;25.67;100.00
41686;BME280;27370;42.764;23.432;2023-07-31T12:50:15;95107.44;;;25.65;100.00
41686;BME280;27370;42.764;23.432;2023-07-31T12:52:41;95103.78;;;25.51;100.00
41686;BME280;27370;42.764;23.432;2023-07-31T12:55:07;95098.88;;;25.69;100.00
41686;BME280;27370;42.764;23.432;2023-07-31T12:57:32;95092.22;;;25.77;100.00
41686;BME280;27370;42.764;23.432;2023-07-31T12:59:58;95082.31;;;25.87;100.00
41686;BME280;27370;42.764;23.432;2023-07-31T13:02:23;95075.25;;;26.11;100.00
41686;BME280;27370;42.764;23.432;2023-07-31T13:04:49;95093.97;;;26.29;100.00
41686;BME280;27370;42.764;23.432;2023-07-31T13:07:15;95093.72;;;26.27;100.00
41686;BME280;27370;42.764;23.432;2023-07-31T13:09:40;95082.34;;;26.31;100.00
41686;BME280;27370;42.764;23.432;2023-07-31T13:12:06;95092.22;;;26.26;100.00
41686;BME280;27370;42.764;23.432;2023-07-31T13:14:32;95093.31;;;26.42;100.00
41686;BME280;27370;42.764;23.432;2023-07-31T13:16:59;95087.69;;;26.47;100.00
41686;BME280;27370;42.764;23.432;2023-07-31T13:19:24;95089.66;;;26.52;100.00
41686;BME280;27370;42.764;23.432;2023-07-31T13:21:50;95093.44;;;26.31;100.00
41686;BME280;27370;42.764;23.432;2023-07-31T13:24:15;95092.88;;;26.13;100.00
41686;BME280;27370;42.764;23.432;2023-07-31T13:26:40;95087.78;;;25.93;100.00
41686;BME280;27370;42.764;23.432;2023-07-31T13:29:06;95087.56;;;25.91;100.00
41686;BME280;27370;42.764;23.432;2023-07-31T13:31:31;95092.41;;;25.85;100.00
41686;BME280;27370;42.764;23.432;2023-07-31T13:33:57;95081.72;;;25.94;100.00
41686;BME280;27370;42.764;23.432;2023-07-31T13:36:23;95080.03;;;26.10;100.00
41686;BME280;27370;42.764;23.432;2023-07-31T13:38:48;95083.47;;;26.41;100.00
41686;BME280;27370;42.764;23.432;2023-07-31T13:41:14;95077.94;;;26.78;100.00
41686;BME280;27370;42.764;23.432;2023-07-31T13:43:39;95087.84;;;26.93;100.00
41686;BME280;27370;42.764;23.432;2023-07-31T13:46:06;95083.50;;;26.78;100.00
41686;BME280;27370;42.764;23.432;2023-07-31T13:48:36;95080.72;;;26.78;100.00
41686;BME280;27370;42.764;23.432;2023-07-31T13:51:02;95089.81;;;26.98;100.00
41686;BME280;27370;42.764;23.432;2023-07-31T13:53:28;95087.94;;;26.87;100.00
41686;BME280;27370;42.764;23.432;2023-07-31T13:55:53;95077.44;;;26.61;100.00
41686;BME280;27370;42.764;23.432;2023-07-31T13:58:20;95084.56;;;26.75;100.00